MAD weather

Adolfo Suárez Madrid–Barajas Airport
Madrid, Madrid, Spain

Public forecast

Using degrees Celsius for public forecast. Weather courtesy of forecast.io.

METAR (pilot weather report)

Retrieved 2019/04/21 12:00 UTC (1 minute ago):

LEMD 211200Z 03007KT 350V080 9999 BKN030 12/05 Q1012 NOSIG

TAF (pilot weather forecast)

Retrieved 2019/04/21 12:26 UTC (0 seconds ago):

TAF LEMD 211100Z 2112/2218 04010KT 9999 SCT030 SCT060 TX18/2216Z TN08/2206Z PROB40 TEMPO 2112/2118 04015G25KT BECMG 2120/2122 VRB05KT PROB30 TEMPO 2214/2218 16006G16KT FEW040TCU